createdAt,value
2022-09-02T00:01:26.525Z,95767.63
2022-09-02T00:03:57.586Z,95770.41
2022-09-02T00:06:24.820Z,95760.72
2022-09-02T00:08:51.740Z,95762.41
2022-09-02T00:11:22.485Z,95762.72
2022-09-02T00:13:50.574Z,95761.81
2022-09-02T00:16:17.496Z,95754.75
2022-09-02T00:18:45.872Z,95760.81
2022-09-02T00:21:14.592Z,95749.28
2022-09-02T00:23:43.062Z,95748.47
2022-09-02T00:26:10.660Z,95752.72
2022-09-02T00:28:37.400Z,95747.91
2022-09-02T00:31:04.142Z,95752.47
2022-09-02T00:33:31.723Z,95750.88
2022-09-02T00:36:02.899Z,95747.75
2022-09-02T00:38:33.463Z,95745.97
2022-09-02T00:41:02.382Z,95745.53
2022-09-02T00:43:44.245Z,95745.19
2022-09-02T00:46:12.907Z,95745.78
2022-09-02T00:48:46.139Z,95742.06
2022-09-02T00:51:13.333Z,95754.44
2022-09-02T00:53:42.767Z,95740.38
2022-09-02T00:56:16.511Z,95738.03
2022-09-02T00:58:43.488Z,95733.94
2022-09-02T01:01:14.686Z,95743.44
2022-09-02T01:03:42.121Z,95741.44
2022-09-02T01:06:15.498Z,95735.16
2022-09-02T01:08:47.690Z,95734.41
2022-09-02T01:11:14.902Z,95745.63
2022-09-02T01:13:43.113Z,95746.88
2022-09-02T01:16:33.547Z,95740.09
2022-09-02T01:19:03.661Z,95741.53
2022-09-02T01:21:30.221Z,95744.84
2022-09-02T01:23:56.986Z,95750.53
2022-09-02T01:26:23.647Z,95745.91
2022-09-02T01:28:50.325Z,95747.97
2022-09-02T01:31:17.533Z,95737.78
2022-09-02T01:33:45.342Z,95746.06
2022-09-02T01:36:12.168Z,95751.44
2022-09-02T01:38:38.864Z,95745.28
2022-09-02T01:41:05.630Z,95745.38
2022-09-02T01:43:32.327Z,95739.69
2022-09-02T01:45:59.900Z,95744.94
2022-09-02T01:48:27.207Z,95737.16
2022-09-02T01:51:01.849Z,95740.03
2022-09-02T01:53:29.806Z,95742.25
2022-09-02T01:55:56.675Z,95737.78
2022-09-02T01:58:23.730Z,95732.88
2022-09-02T02:00:50.956Z,95735.28
2022-09-02T02:03:18.233Z,95741.09
2022-09-02T02:05:45.067Z,95739.31
2022-09-02T02:08:11.899Z,95743.06
2022-09-02T02:10:42.638Z,95739.41
2022-09-02T02:13:10.004Z,95750.38
2022-09-02T02:15:41.671Z,95738.22
2022-09-02T02:18:09.276Z,95745.03
2022-09-02T02:20:36.530Z,95738.53
2022-09-02T02:23:05.736Z,95736.91
2022-09-02T02:25:32.532Z,95738.78
2022-09-02T02:27:59.201Z,95736.81
2022-09-02T02:30:25.815Z,95734.25
2022-09-02T02:32:52.630Z,95740.59
2022-09-02T02:35:20.130Z,95743.44
2022-09-02T02:37:49.310Z,95727.91
2022-09-02T02:40:22.196Z,95733.25
2022-09-02T02:42:49.579Z,95735.13
2022-09-02T02:45:16.386Z,95731.22
2022-09-02T02:47:46.089Z,95735.56
2022-09-02T02:50:15.791Z,95727.91
2022-09-02T02:52:43.363Z,95723.53
2022-09-02T02:55:12.413Z,95724.34
2022-09-02T02:57:40.893Z,95729.44
2022-09-02T03:00:18.281Z,95726.91
2022-09-02T03:02:44.907Z,95731.03
2022-09-02T03:05:14.015Z,95733.50
2022-09-02T03:07:40.823Z,95725.28
2022-09-02T03:10:09.727Z,95729.50
2022-09-02T03:12:37.056Z,95731.19
2022-09-02T03:15:04.762Z,95738.31
2022-09-02T03:17:31.498Z,95729.66
2022-09-02T03:19:59.325Z,95732.00
2022-09-02T03:22:27.497Z,95729.41
2022-09-02T03:24:54.310Z,95727.25
2022-09-02T03:27:20.903Z,95729.50
2022-09-02T03:29:47.485Z,95727.88
2022-09-02T03:32:14.816Z,95722.63
2022-09-02T03:34:42.450Z,95719.06
2022-09-02T03:37:09.626Z,95723.34
2022-09-02T03:39:38.344Z,95714.75
2022-09-02T03:42:05.698Z,95716.38
2022-09-02T03:44:34.300Z,95713.97
2022-09-02T03:47:01.308Z,95717.41
2022-09-02T03:49:28.294Z,95708.94
2022-09-02T03:51:54.967Z,95712.31
2022-09-02T03:54:21.629Z,95709.19
2022-09-02T03:56:48.694Z,95704.91
2022-09-02T03:59:15.336Z,95701.88
2022-09-02T04:01:42.139Z,95705.06
2022-09-02T04:04:09.326Z,95711.41
2022-09-02T04:06:36.525Z,95704.06
2022-09-02T04:09:04.163Z,95702.72
2022-09-02T04:11:30.823Z,95699.97
2022-09-02T04:13:58.538Z,95699.75
2022-09-02T04:16:29.268Z,95702.69
2022-09-02T04:18:58.533Z,95705.13
2022-09-02T04:21:26.124Z,95701.91
2022-09-02T04:23:52.790Z,95699.38
2022-09-02T04:26:21.251Z,95703.28
2022-09-02T04:28:49.524Z,95695.34
2022-09-02T04:31:19.680Z,95696.81
2022-09-02T04:33:48.582Z,95694.19
2022-09-02T04:36:17.129Z,95691.56
2022-09-02T04:38:44.031Z,95686.53
2022-09-02T04:41:17.317Z,95688.38
2022-09-02T04:43:43.992Z,95692.97
2022-09-02T04:46:12.908Z,95682.16
2022-09-02T04:48:40.570Z,95689.28
2022-09-02T04:51:10.588Z,95692.75
2022-09-02T04:53:37.310Z,95694.13
2022-09-02T04:56:09.074Z,95695.63
2022-09-02T04:58:37.012Z,95689.75
2022-09-02T05:01:08.257Z,95693.41
2022-09-02T05:03:34.997Z,95690.03
2022-09-02T05:06:04.306Z,95687.09
2022-09-02T05:08:31.118Z,95691.09
2022-09-02T05:10:58.371Z,95693.88
2022-09-02T05:13:26.115Z,95690.41
2022-09-02T05:15:52.945Z,95686.47
2022-09-02T05:18:19.730Z,95687.38
2022-09-02T05:20:47.056Z,95683.72
2022-09-02T05:23:14.126Z,95690.16
2022-09-02T05:25:41.559Z,95686.34
2022-09-02T05:28:09.186Z,95689.88
2022-09-02T05:30:40.974Z,95683.66
2022-09-02T05:33:09.185Z,95684.47
2022-09-02T05:35:41.468Z,95699.28
2022-09-02T05:38:11.520Z,95699.56
2022-09-02T05:40:39.109Z,95692.81
2022-09-02T05:43:06.822Z,95692.91
2022-09-02T05:45:34.433Z,95682.66
2022-09-02T05:48:20.981Z,95680.88
2022-09-02T05:50:50.337Z,95670.03
2022-09-02T05:53:26.935Z,95671.94
2022-09-02T05:55:53.728Z,95667.28
2022-09-02T05:58:20.315Z,95668.72
2022-09-02T06:00:46.903Z,95676.78
2022-09-02T06:03:13.681Z,95674.63
2022-09-02T06:05:42.531Z,95664.81
2022-09-02T06:08:09.170Z,95664.91
2022-09-02T06:10:42.288Z,95660.97
2022-09-02T06:13:11.682Z,95673.72
2022-09-02T06:15:44.278Z,95661.00
2022-09-02T06:18:12.498Z,95657.38
2022-09-02T06:20:42.767Z,95658.59
2022-09-02T06:23:09.509Z,95657.91
2022-09-02T06:25:38.470Z,95649.22
2022-09-02T06:28:07.361Z,95656.25
2022-09-02T06:30:34.406Z,95651.06
2022-09-02T06:33:04.507Z,95654.59
2022-09-02T06:35:34.774Z,95656.63
2022-09-02T06:38:01.336Z,95650.78
2022-09-02T06:40:28.062Z,95659.38
2022-09-02T06:42:54.693Z,95649.06
2022-09-02T06:45:21.348Z,95660.13
2022-09-02T06:47:47.957Z,95652.56
2022-09-02T06:50:15.441Z,95645.94
2022-09-02T06:52:42.111Z,95653.88
2022-09-02T06:58:02.512Z,95651.47
2022-09-02T07:00:29.119Z,95655.47
2022-09-02T07:03:14.301Z,95650.28
2022-09-02T07:05:41.058Z,95644.31
2022-09-02T07:08:09.036Z,95655.06
2022-09-02T07:10:42.177Z,95655.31
2022-09-02T07:13:09.250Z,95655.56
2022-09-02T07:15:35.831Z,95658.63
2022-09-02T07:18:04.109Z,95657.63
2022-09-02T07:20:31.003Z,95656.69
2022-09-02T07:22:57.933Z,95660.25
2022-09-02T07:25:24.654Z,95651.56
2022-09-02T07:27:51.601Z,95650.91
2022-09-02T07:30:18.405Z,95661.53
2022-09-02T07:32:45.489Z,95653.38
2022-09-02T07:35:12.075Z,95653.38
2022-09-02T07:37:38.768Z,95649.25
2022-09-02T07:40:07.259Z,95650.88
2022-09-02T07:42:34.382Z,95655.44
2022-09-02T07:45:01.330Z,95646.28
2022-09-02T07:47:27.931Z,95644.84
2022-09-02T07:52:41.161Z,95653.69
2022-09-02T07:55:14.019Z,95650.63
2022-09-02T07:57:41.410Z,95650.78
2022-09-02T08:00:08.785Z,95649.44
2022-09-02T08:02:35.463Z,95648.09
2022-09-02T08:05:02.550Z,95649.06
2022-09-02T08:07:29.343Z,95640.41
2022-09-02T08:09:56.284Z,95646.16
2022-09-02T08:12:22.965Z,95649.28
2022-09-02T08:14:49.790Z,95639.75
2022-09-02T08:17:16.453Z,95642.16
2022-09-02T08:19:45.205Z,95636.72
2022-09-02T08:22:11.841Z,95638.63
2022-09-02T08:24:39.227Z,95650.47
2022-09-02T08:27:05.895Z,95646.25
2022-09-02T08:29:32.514Z,95645.09
2022-09-02T08:31:59.216Z,95642.41
2022-09-02T08:34:26.116Z,95638.47
2022-09-02T08:36:56.388Z,95641.53
2022-09-02T08:42:04.284Z,95640.50
2022-09-02T08:44:36.585Z,95644.16
2022-09-02T08:47:07.886Z,95643.38
2022-09-02T08:49:57.608Z,95639.84
2022-09-02T08:52:33.869Z,95639.47
2022-09-02T08:55:01.109Z,95645.38
2022-09-02T08:57:27.884Z,95646.69
2022-09-02T08:59:58.471Z,95644.38
2022-09-02T09:03:01.395Z,95646.56
2022-09-02T09:05:27.925Z,95650.75
2022-09-02T09:08:21.626Z,95645.19
2022-09-02T09:11:10.782Z,95645.63
2022-09-02T09:14:06.858Z,95635.75
2022-09-02T09:16:45.662Z,95632.03
2022-09-02T09:19:15.494Z,95635.31
2022-09-02T09:21:43.786Z,95626.56
2022-09-02T09:24:26.894Z,95632.56
2022-09-02T09:26:54.986Z,95631.06
2022-09-02T09:29:21.765Z,95630.25
2022-09-02T09:31:55.995Z,95633.44
2022-09-02T09:34:23.003Z,95631.78
2022-09-02T09:36:53.657Z,95626.28
2022-09-02T09:39:31.707Z,95641.31
2022-09-02T09:42:14.115Z,95641.44
2022-09-02T09:44:46.700Z,95639.44
2022-09-02T09:47:25.978Z,95631.06
2022-09-02T09:49:53.959Z,95625.50
2022-09-02T09:52:29.265Z,95625.09
2022-09-02T09:55:14.329Z,95612.31
2022-09-02T09:57:44.600Z,95616.72
2022-09-02T10:00:34.196Z,95603.53
2022-09-02T10:03:06.838Z,95605.13
2022-09-02T10:05:39.214Z,95589.53
2022-09-02T10:08:18.483Z,95593.13
2022-09-02T10:11:08.659Z,95575.94
2022-09-02T10:13:37.909Z,95591.16
2022-09-02T10:16:04.475Z,95593.50
2022-09-02T10:18:51.606Z,95591.88
2022-09-02T10:21:27.169Z,95589.50
2022-09-02T10:24:11.849Z,95584.69
2022-09-02T10:26:51.234Z,95579.13
2022-09-02T10:29:35.885Z,95570.22
2022-09-02T10:32:14.358Z,95569.44
2022-09-02T10:35:16.339Z,95569.25
2022-09-02T10:37:58.567Z,95560.78
2022-09-02T10:40:53.097Z,95566.47
2022-09-02T10:43:57.332Z,95552.91
2022-09-02T10:46:25.536Z,95554.78
2022-09-02T10:49:11.419Z,95548.34
2022-09-02T10:51:46.072Z,95547.50
2022-09-02T10:54:18.601Z,95547.19
2022-09-02T10:57:03.501Z,95545.88
2022-09-02T10:59:41.961Z,95545.31
2022-09-02T11:02:41.166Z,95556.91
2022-09-02T11:05:23.430Z,95547.03
2022-09-02T11:08:01.069Z,95554.47
2022-09-02T11:11:05.263Z,95542.94
2022-09-02T11:13:39.280Z,95551.66
2022-09-02T11:16:15.264Z,95544.03
2022-09-02T11:18:50.467Z,95536.75
2022-09-02T11:21:47.652Z,95542.78
2022-09-02T11:24:28.413Z,95540.94
2022-09-02T11:27:41.213Z,95540.63
2022-09-02T11:30:13.319Z,95533.06
2022-09-02T11:32:59.591Z,95537.25
2022-09-02T11:35:38.727Z,95541.28
2022-09-02T11:38:18.791Z,95539.38
2022-09-02T11:41:32.977Z,95548.75
2022-09-02T11:43:56.350Z,95544.53
2022-09-02T11:47:02.555Z,95538.03
2022-09-02T11:49:37.923Z,95532.94
2022-09-02T11:52:38.398Z,95541.16
2022-09-02T11:55:24.662Z,95535.31
2022-09-02T11:57:54.239Z,95531.13
2022-09-02T12:00:36.824Z,95534.63
2022-09-02T12:03:16.764Z,95530.50
2022-09-02T12:05:51.990Z,95535.00
2022-09-02T12:08:27.886Z,95528.44
2022-09-02T12:11:04.830Z,95524.47
2022-09-02T12:13:37.232Z,95522.31
2022-09-02T12:16:16.663Z,95520.41
2022-09-02T12:18:45.624Z,95523.38
2022-09-02T12:21:16.552Z,95516.28
2022-09-02T12:23:53.147Z,95511.84
2022-09-02T12:26:27.175Z,95518.44
2022-09-02T12:29:10.903Z,95516.06
2022-09-02T12:31:45.663Z,95504.94
2022-09-02T12:34:21.312Z,95506.94
2022-09-02T12:36:52.174Z,95507.22
2022-09-02T12:39:25.537Z,95497.41
2022-09-02T12:42:07.331Z,95505.56
2022-09-02T12:44:45.747Z,95489.06
2022-09-02T12:47:31.418Z,95496.84
2022-09-02T12:50:20.162Z,95492.22
2022-09-02T12:52:49.662Z,95494.59
2022-09-02T12:55:30.692Z,95490.59
2022-09-02T12:58:07.694Z,95491.91
2022-09-02T13:00:54.585Z,95481.34
2022-09-02T13:03:29.966Z,95483.00
2022-09-02T13:06:02.358Z,95479.00
2022-09-02T13:08:28.883Z,95476.78
2022-09-02T13:11:21.805Z,95474.31
2022-09-02T13:14:24.828Z,95470.75
2022-09-02T13:17:25.937Z,95463.69
2022-09-02T13:20:14.674Z,95453.00
2022-09-02T13:22:48.925Z,95458.72
2022-09-02T13:25:47.071Z,95467.03
2022-09-02T13:28:33.691Z,95458.19
2022-09-02T13:31:35.817Z,95452.06
2022-09-02T13:34:08.209Z,95459.50
2022-09-02T13:36:37.669Z,95461.94
2022-09-02T13:39:26.571Z,95458.34
2022-09-02T13:41:53.696Z,95449.63
2022-09-02T13:44:23.681Z,95444.22
2022-09-02T13:47:01.511Z,95444.22
2022-09-02T13:49:37.915Z,95436.78
2022-09-02T13:52:12.119Z,95444.25
2022-09-02T13:54:57.002Z,95445.91
2022-09-02T13:57:30.062Z,95442.34
2022-09-02T13:59:58.252Z,95435.44
2022-09-02T14:02:32.562Z,95434.56
2022-09-02T14:05:13.115Z,95436.72
2022-09-02T14:07:50.361Z,95430.13
2022-09-02T14:10:20.181Z,95428.53
2022-09-02T14:12:47.438Z,95419.56
2022-09-02T14:15:16.754Z,95424.25
2022-09-02T14:17:43.550Z,95421.75
2022-09-02T14:20:20.606Z,95417.09
2022-09-02T14:22:58.614Z,95411.31
2022-09-02T14:25:49.315Z,95414.03
2022-09-02T14:28:22.297Z,95406.66
2022-09-02T14:31:29.334Z,95404.00
2022-09-02T14:33:59.822Z,95400.81
2022-09-02T14:36:26.319Z,95401.78
2022-09-02T14:39:08.828Z,95397.94
2022-09-02T14:41:36.330Z,95393.91
2022-09-02T14:44:25.656Z,95387.66
2022-09-02T14:46:55.699Z,95396.41
2022-09-02T14:49:31.296Z,95393.91
2022-09-02T14:52:00.468Z,95391.06
2022-09-02T14:54:40.787Z,95388.41
2022-09-02T14:57:32.575Z,95401.63
2022-09-02T15:00:08.475Z,95394.34
2022-09-02T15:02:36.425Z,95397.72
2022-09-02T15:05:09.237Z,95401.16
2022-09-02T15:07:35.877Z,95394.06
2022-09-02T15:10:02.788Z,95382.19
2022-09-02T15:12:33.149Z,95385.59
2022-09-02T15:15:00.536Z,95379.44
2022-09-02T15:17:27.231Z,95385.19
2022-09-02T15:19:53.923Z,95380.44
2022-09-02T15:22:22.454Z,95376.28
2022-09-02T15:24:49.293Z,95379.34
2022-09-02T15:27:17.330Z,95380.47
2022-09-02T15:29:48.998Z,95379.88
2022-09-02T15:32:15.890Z,95381.28
2022-09-02T15:34:42.535Z,95387.72
2022-09-02T15:37:12.791Z,95378.66
2022-09-02T15:39:40.625Z,95380.19
2022-09-02T15:42:07.303Z,95372.09
2022-09-02T15:44:33.995Z,95377.66
2022-09-02T15:47:00.587Z,95379.56
2022-09-02T15:49:27.551Z,95369.91
2022-09-02T15:51:55.110Z,95374.84
2022-09-02T15:54:23.872Z,95374.81
2022-09-02T15:56:55.621Z,95373.84
2022-09-02T15:59:23.610Z,95364.47
2022-09-02T16:01:55.267Z,95356.09
2022-09-02T16:04:23.251Z,95354.97
2022-09-02T16:06:54.912Z,95351.97
2022-09-02T16:09:22.091Z,95360.63
2022-09-02T16:11:56.416Z,95356.78
2022-09-02T16:14:25.174Z,95352.88
2022-09-02T16:16:56.269Z,95357.56
2022-09-02T16:19:24.486Z,95352.69
2022-09-02T16:21:51.901Z,95342.69
2022-09-02T16:24:21.551Z,95345.03
2022-09-02T16:26:49.041Z,95357.84
2022-09-02T16:29:19.619Z,95353.44
2022-09-02T16:32:02.365Z,95357.53
2022-09-02T16:34:34.807Z,95362.31
2022-09-02T16:37:01.554Z,95359.59
2022-09-02T16:39:28.381Z,95354.41
2022-09-02T16:41:55.387Z,95351.19
2022-09-02T16:44:26.052Z,95352.69
2022-09-02T16:46:53.703Z,95350.88
2022-09-02T16:49:22.241Z,95346.50
2022-09-02T16:51:50.911Z,95344.38
2022-09-02T16:54:30.835Z,95338.03
2022-09-02T16:57:00.084Z,95344.56
2022-09-02T16:59:27.572Z,95333.75
2022-09-02T17:01:54.216Z,95333.22
2022-09-02T17:04:20.918Z,95337.22
2022-09-02T17:06:47.790Z,95323.31
2022-09-02T17:09:16.425Z,95329.31
2022-09-02T17:11:45.221Z,95322.13
2022-09-02T17:14:15.232Z,95321.03
2022-09-02T17:16:48.521Z,95323.88
2022-09-02T17:19:21.376Z,95322.31
2022-09-02T17:21:53.249Z,95325.25
2022-09-02T17:24:25.037Z,95324.50
2022-09-02T17:26:55.979Z,95319.69
2022-09-02T17:29:48.635Z,95319.66
2022-09-02T17:32:11.820Z,95315.75
2022-09-02T17:34:38.474Z,95315.38
2022-09-02T17:37:05.775Z,95321.47
2022-09-02T17:39:34.317Z,95320.31
2022-09-02T17:42:02.149Z,95319.16
2022-09-02T17:44:38.781Z,95311.22
2022-09-02T17:47:20.261Z,95318.88
2022-09-02T17:49:48.387Z,95321.66
2022-09-02T17:52:24.456Z,95316.09
2022-09-02T17:54:53.309Z,95321.69
2022-09-02T17:57:52.239Z,95319.75
2022-09-02T18:00:22.367Z,95314.59
2022-09-02T18:03:23.086Z,95304.28
2022-09-02T18:05:55.567Z,95314.66
2022-09-02T18:08:25.741Z,95321.44
2022-09-02T18:10:57.729Z,95320.25
2022-09-02T18:13:40.134Z,95317.88
2022-09-02T18:16:25.769Z,95323.91
2022-09-02T18:19:08.070Z,95322.31
2022-09-02T18:21:51.982Z,95319.97
2022-09-02T18:24:46.339Z,95324.34
2022-09-02T18:27:25.009Z,95327.94
2022-09-02T18:30:02.148Z,95318.78
2022-09-02T18:33:06.777Z,95319.16
2022-09-02T18:35:48.655Z,95328.75
2022-09-02T18:38:18.173Z,95316.81
2022-09-02T18:41:38.814Z,95318.41
2022-09-02T18:44:15.094Z,95315.22
2022-09-02T18:46:52.899Z,95322.81
2022-09-02T18:49:22.529Z,95315.25
2022-09-02T18:52:04.366Z,95315.25
2022-09-02T18:54:47.406Z,95327.22
2022-09-02T18:57:15.319Z,95323.25
2022-09-02T19:00:01.147Z,95330.44
2022-09-02T19:02:31.051Z,95331.63
2022-09-02T19:04:58.529Z,95324.06
2022-09-02T19:07:44.027Z,95331.25
2022-09-02T19:10:11.239Z,95341.59
2022-09-02T19:12:39.138Z,95332.81
2022-09-02T19:15:10.438Z,95327.66
2022-09-02T19:17:40.529Z,95334.03
2022-09-02T19:20:08.669Z,95342.38
2022-09-02T19:22:41.543Z,95336.03
2022-09-02T19:25:13.059Z,95333.63
2022-09-02T19:27:43.720Z,95338.41
2022-09-02T19:30:19.032Z,95326.47
2022-09-02T19:32:48.415Z,95339.97
2022-09-02T19:35:18.300Z,95333.59
2022-09-02T19:37:51.182Z,95331.22
2022-09-02T19:40:24.558Z,95331.63
2022-09-02T19:42:54.663Z,95332.81
2022-09-02T19:45:22.625Z,95332.41
2022-09-02T19:48:06.629Z,95335.59
2022-09-02T19:50:36.399Z,95338.00
2022-09-02T19:53:03.268Z,95337.59
2022-09-02T19:55:29.883Z,95335.59
2022-09-02T19:57:56.621Z,95337.59
2022-09-02T20:00:23.335Z,95336.00
2022-09-02T20:02:51.117Z,95336.78
2022-09-02T20:05:17.863Z,95343.53
2022-09-02T20:07:44.402Z,95332.81
2022-09-02T20:10:11.812Z,95342.75
2022-09-02T20:12:38.481Z,95343.94
2022-09-02T20:15:06.762Z,95347.13
2022-09-02T20:17:33.442Z,95349.50
2022-09-02T20:20:08.694Z,95347.91
2022-09-02T20:22:35.303Z,95357.06
2022-09-02T20:25:01.925Z,95346.31
2022-09-02T20:27:55.831Z,95355.47
2022-09-02T20:30:33.278Z,95341.53
2022-09-02T20:33:19.318Z,95340.72
2022-09-02T20:36:24.798Z,95338.34
2022-09-02T20:39:27.574Z,95347.09
2022-09-02T20:42:11.773Z,95336.75
2022-09-02T20:44:49.289Z,95335.16
2022-09-02T20:47:20.135Z,95340.34
2022-09-02T20:50:18.686Z,95340.72
2022-09-02T20:53:19.791Z,95328.78
2022-09-02T20:55:58.309Z,95340.72
2022-09-02T20:58:36.346Z,95338.72
2022-09-02T21:01:07.945Z,95342.31
2022-09-02T21:04:11.855Z,95336.69
2022-09-02T21:06:51.132Z,95335.06
2022-09-02T21:09:56.015Z,95340.63
2022-09-02T21:12:40.317Z,95331.88
2022-09-02T21:15:33.314Z,95327.09
2022-09-02T21:18:12.038Z,95328.28
2022-09-02T21:20:44.954Z,95328.69
2022-09-02T21:23:21.115Z,95330.69
2022-09-02T21:26:05.919Z,95327.47
2022-09-02T21:28:47.462Z,95324.69
2022-09-02T21:31:48.656Z,95328.28
2022-09-02T21:34:21.620Z,95329.47
2022-09-02T21:36:49.382Z,95313.94
2022-09-02T21:39:19.322Z,95316.75
2022-09-02T21:42:11.999Z,95319.13
2022-09-02T21:45:13.137Z,95316.75
2022-09-02T21:47:56.998Z,95319.13
2022-09-02T21:50:45.511Z,95319.53
2022-09-02T21:53:19.130Z,95323.88
2022-09-02T21:56:22.898Z,95318.28
2022-09-02T21:59:33.972Z,95323.84
2022-09-02T22:02:09.237Z,95318.25
2022-09-02T22:04:53.862Z,95320.63
2022-09-02T22:07:50.627Z,95315.81
2022-09-02T22:10:32.673Z,95318.59
2022-09-02T22:13:01.285Z,95312.59
2022-09-02T22:15:58.210Z,95313.78
2022-09-02T22:18:41.025Z,95312.59
2022-09-02T22:21:28.692Z,95312.94
2022-09-02T22:23:56.229Z,95308.56
2022-09-02T22:26:39.163Z,95301.44
2022-09-02T22:29:32.282Z,95307.38
2022-09-02T22:32:00.471Z,95299.03
2022-09-02T22:34:31.215Z,95301.41
2022-09-02T22:37:02.769Z,95296.59
2022-09-02T22:39:41.141Z,95296.19
2022-09-02T22:42:21.257Z,95293.41
2022-09-02T22:45:42.878Z,95294.88
2022-09-02T22:48:34.705Z,95288.53
2022-09-02T22:51:25.550Z,95282.94
2022-09-02T22:53:52.174Z,95287.31
2022-09-02T22:56:33.358Z,95282.97
2022-09-02T22:59:25.378Z,95284.91
2022-09-02T23:02:12.229Z,95284.13
2022-09-02T23:05:02.685Z,95271.78
2022-09-02T23:07:32.622Z,95275.31
2022-09-02T23:10:15.339Z,95280.16
2022-09-02T23:12:51.905Z,95275.75
2022-09-02T23:15:33.032Z,95272.13
2022-09-02T23:18:08.662Z,95271.31
2022-09-02T23:20:57.323Z,95271.22
2022-09-02T23:24:13.323Z,95265.25
2022-09-02T23:26:47.423Z,95274.25
2022-09-02T23:29:27.127Z,95263.50
2022-09-02T23:32:05.667Z,95263.91
2022-09-02T23:35:07.251Z,95265.84
2022-09-02T23:38:00.302Z,95266.56
2022-09-02T23:40:31.209Z,95265.81
2022-09-02T23:43:00.257Z,95271.38
2022-09-02T23:45:30.774Z,95271.78
2022-09-02T23:48:25.681Z,95278.50
2022-09-02T23:51:19.266Z,95269.81
2022-09-02T23:53:54.980Z,95269.38
2022-09-02T23:56:21.483Z,95272.53
2022-09-02T23:59:01.330Z,95272.06
